createdAt,value
2018-06-25T00:00:44.326Z,16.70
2018-06-25T00:03:12.553Z,16.70
2018-06-25T00:05:40.766Z,16.60
2018-06-25T00:08:09.007Z,16.70
2018-06-25T00:10:37.248Z,16.70
2018-06-25T00:13:05.995Z,16.60
2018-06-25T00:15:34.302Z,16.60
2018-06-25T00:18:02.545Z,16.60
2018-06-25T00:20:30.799Z,16.60
2018-06-25T00:22:59.060Z,16.60
2018-06-25T00:25:27.281Z,16.60
2018-06-25T00:27:55.517Z,16.60
2018-06-25T00:30:23.974Z,16.60
2018-06-25T00:32:52.230Z,16.60
2018-06-25T00:35:20.465Z,16.70
2018-06-25T00:37:48.728Z,16.70
2018-06-25T00:40:18.154Z,16.60
2018-06-25T00:42:46.993Z,16.60
2018-06-25T00:45:15.211Z,16.60
2018-06-25T00:47:43.470Z,16.70
2018-06-25T00:50:11.684Z,16.70
2018-06-25T00:52:39.943Z,16.60
2018-06-25T00:55:08.212Z,16.60
2018-06-25T00:57:36.475Z,16.60
2018-06-25T01:00:04.772Z,16.60
2018-06-25T01:02:33.012Z,16.50
2018-06-25T01:05:01.224Z,16.50
2018-06-25T01:09:57.452Z,16.40
2018-06-25T01:12:25.696Z,16.40
2018-06-25T01:14:53.940Z,16.40
2018-06-25T01:17:22.177Z,16.40
2018-06-25T01:19:50.432Z,16.40
2018-06-25T01:22:18.658Z,16.40
2018-06-25T01:24:46.919Z,16.40
2018-06-25T01:27:15.151Z,16.40
2018-06-25T01:29:43.445Z,16.40
2018-06-25T01:32:11.712Z,16.50
2018-06-25T01:34:39.944Z,16.40
2018-06-25T01:37:08.173Z,16.40
2018-06-25T01:39:36.412Z,16.40
2018-06-25T01:42:04.705Z,16.40
2018-06-25T01:44:32.959Z,16.40
2018-06-25T01:47:01.185Z,16.50
2018-06-25T01:49:29.436Z,16.50
2018-06-25T01:51:57.701Z,16.50
2018-06-25T01:54:25.938Z,16.50
2018-06-25T01:56:54.157Z,16.50
2018-06-25T02:04:18.451Z,16.50
2018-06-25T02:06:46.692Z,16.50
2018-06-25T02:09:14.930Z,16.40
2018-06-25T02:11:43.222Z,16.30
2018-06-25T02:14:11.449Z,16.30
2018-06-25T02:16:39.959Z,16.20
2018-06-25T02:19:08.449Z,16.20
2018-06-25T02:24:04.721Z,16.10
2018-06-25T02:26:32.948Z,16.10
2018-06-25T02:29:01.256Z,16.10
2018-06-25T02:31:29.525Z,16.10
2018-06-25T02:33:58.212Z,16.10
2018-06-25T02:36:26.467Z,16.20
2018-06-25T02:38:54.693Z,16.20
2018-06-25T02:41:22.935Z,16.20
2018-06-25T02:43:51.376Z,16.20
2018-06-25T02:46:19.595Z,16.20
2018-06-25T02:48:47.877Z,16.20
2018-06-25T02:51:16.104Z,16.20
2018-06-25T02:53:44.393Z,16.20
2018-06-25T02:56:12.649Z,16.20
2018-06-25T02:58:40.903Z,16.20
2018-06-25T03:01:09.116Z,16.20
2018-06-25T03:03:43.893Z,16.20
2018-06-25T03:06:12.113Z,16.20
2018-06-25T03:11:08.367Z,16.20
2018-06-25T03:13:36.624Z,16.20
2018-06-25T03:16:04.865Z,16.20
2018-06-25T03:18:33.080Z,16.20
2018-06-25T03:21:01.461Z,16.20
2018-06-25T03:23:29.697Z,16.30
2018-06-25T03:25:57.922Z,16.30
2018-06-25T03:28:26.165Z,16.20
2018-06-25T03:30:54.379Z,16.20
2018-06-25T03:33:22.632Z,16.20
2018-06-25T03:35:50.853Z,16.20
2018-06-25T03:38:19.124Z,16.20
2018-06-25T03:40:47.369Z,16.20
2018-06-25T03:43:15.601Z,16.10
2018-06-25T03:45:43.816Z,16.10
2018-06-25T03:48:12.115Z,16.20
2018-06-25T03:53:14.836Z,16.20
2018-06-25T03:55:43.068Z,16.20
2018-06-25T03:58:11.305Z,16.20
2018-06-25T04:00:39.751Z,16.20
2018-06-25T04:03:08.276Z,16.20
2018-06-25T04:05:36.528Z,16.20
2018-06-25T04:08:04.805Z,16.20
2018-06-25T04:10:33.033Z,16.30
2018-06-25T04:13:01.252Z,16.30
2018-06-25T04:15:29.535Z,16.30
2018-06-25T04:17:57.792Z,16.30
2018-06-25T04:20:26.036Z,16.30
2018-06-25T04:22:54.285Z,16.40
2018-06-25T04:25:22.511Z,16.40
2018-06-25T04:27:50.796Z,16.40
2018-06-25T04:30:19.076Z,16.30
2018-06-25T04:32:47.329Z,16.30
2018-06-25T04:35:15.568Z,16.30
2018-06-25T04:37:43.821Z,16.40
2018-06-25T04:40:12.059Z,16.40
2018-06-25T04:42:40.307Z,16.50
2018-06-25T04:45:08.588Z,16.50
2018-06-25T04:47:37.333Z,16.70
2018-06-25T04:50:05.791Z,16.70
2018-06-25T04:52:34.033Z,16.70
2018-06-25T04:55:02.252Z,16.70
2018-06-25T04:57:30.504Z,16.80
2018-06-25T04:59:58.783Z,16.90
2018-06-25T05:02:27.065Z,16.90
2018-06-25T05:04:55.285Z,16.90
2018-06-25T05:07:23.571Z,17.00
2018-06-25T05:09:51.992Z,17.00
2018-06-25T05:12:20.329Z,17.00
2018-06-25T05:14:48.594Z,17.10
2018-06-25T05:17:16.816Z,17.10
2018-06-25T05:19:45.089Z,17.20
2018-06-25T05:22:13.339Z,17.30
2018-06-25T05:24:41.549Z,17.30
2018-06-25T05:27:09.815Z,17.40
2018-06-25T05:32:06.012Z,17.40
2018-06-25T05:37:02.217Z,17.50
2018-06-25T05:39:30.481Z,17.50
2018-06-25T05:41:58.696Z,17.70
2018-06-25T05:44:27.043Z,17.70
2018-06-25T05:46:55.279Z,17.70
2018-06-25T05:49:23.575Z,17.70
2018-06-25T05:51:51.828Z,17.70
2018-06-25T05:54:20.048Z,17.70
2018-06-25T05:56:48.281Z,17.60
2018-06-25T05:59:16.521Z,17.60
2018-06-25T06:01:44.753Z,17.60
2018-06-25T06:04:13.008Z,17.70
2018-06-25T06:06:41.234Z,17.70
2018-06-25T06:09:10.048Z,17.70
2018-06-25T06:11:38.335Z,17.70
2018-06-25T06:14:06.550Z,17.80
2018-06-25T06:16:34.859Z,17.80
2018-06-25T06:19:03.144Z,17.80
2018-06-25T06:21:31.392Z,17.90
2018-06-25T06:23:59.632Z,17.90
2018-06-25T06:28:55.820Z,18.00
2018-06-25T06:31:24.082Z,18.00
2018-06-25T06:33:52.300Z,18.00
2018-06-25T06:36:20.514Z,18.00
2018-06-25T06:38:48.744Z,18.00
2018-06-25T06:41:17.035Z,18.10
2018-06-25T06:43:45.277Z,18.20
2018-06-25T06:46:13.531Z,18.30
2018-06-25T06:48:41.800Z,18.40
2018-06-25T06:51:10.086Z,18.40
2018-06-25T06:53:38.332Z,18.30
2018-06-25T06:56:06.559Z,18.30
2018-06-25T07:01:02.868Z,18.40
2018-06-25T07:03:31.093Z,18.50
2018-06-25T07:05:59.340Z,18.50
2018-06-25T07:08:27.576Z,18.60
2018-06-25T07:10:55.906Z,18.60
2018-06-25T07:13:24.148Z,18.70
2018-06-25T07:15:52.376Z,18.80
2018-06-25T07:18:20.630Z,18.80
2018-06-25T07:20:48.869Z,18.90
2018-06-25T07:23:17.112Z,19.00
2018-06-25T07:25:45.373Z,19.00
2018-06-25T07:30:41.612Z,19.00
2018-06-25T07:33:09.851Z,19.10
2018-06-25T07:35:38.109Z,19.30
2018-06-25T07:38:06.376Z,19.60
2018-06-25T07:40:34.760Z,19.80
2018-06-25T07:43:03.072Z,20.00
2018-06-25T07:45:31.312Z,20.00
2018-06-25T07:47:59.572Z,20.00
2018-06-25T07:50:27.779Z,20.00
2018-06-25T07:52:56.054Z,20.00
2018-06-25T07:55:24.324Z,20.10
2018-06-25T07:57:52.589Z,20.10
2018-06-25T08:00:20.817Z,20.10
2018-06-25T08:02:49.077Z,20.20
2018-06-25T08:05:17.500Z,20.40
2018-06-25T08:07:45.764Z,20.60
2018-06-25T08:10:14.083Z,20.70
2018-06-25T08:12:42.360Z,20.70
2018-06-25T08:15:10.592Z,20.60
2018-06-25T08:17:38.836Z,20.50
2018-06-25T08:20:07.101Z,20.30
2018-06-25T08:22:35.332Z,20.20
2018-06-25T08:25:03.560Z,20.20
2018-06-25T08:27:31.852Z,20.20
2018-06-25T08:30:00.119Z,20.30
2018-06-25T08:32:28.299Z,20.40
2018-06-25T08:34:56.549Z,20.90
2018-06-25T08:37:24.778Z,21.40
2018-06-25T08:39:53.215Z,21.60
2018-06-25T08:42:21.441Z,21.50
2018-06-25T08:44:49.676Z,21.20
2018-06-25T08:47:17.980Z,20.90
2018-06-25T08:49:46.210Z,20.70
2018-06-25T08:52:14.481Z,20.50
2018-06-25T08:54:42.767Z,20.30
2018-06-25T08:57:11.023Z,20.20
2018-06-25T09:02:07.231Z,20.20
2018-06-25T09:04:35.441Z,20.40
2018-06-25T09:07:03.716Z,20.60
2018-06-25T09:12:00.002Z,21.10
2018-06-25T09:14:28.244Z,21.40
2018-06-25T09:16:56.475Z,21.60
2018-06-25T09:19:24.732Z,21.60
2018-06-25T09:21:53.016Z,21.60
2018-06-25T09:24:21.320Z,21.50
2018-06-25T09:26:49.570Z,21.20
2018-06-25T09:29:17.852Z,20.90
2018-06-25T09:31:46.089Z,20.70
2018-06-25T09:34:19.639Z,20.60
2018-06-25T09:36:47.864Z,20.70
2018-06-25T09:39:16.152Z,20.90
2018-06-25T09:41:44.556Z,21.20
2018-06-25T09:44:12.641Z,21.40
2018-06-25T09:46:40.900Z,21.60
2018-06-25T09:49:09.148Z,21.70
2018-06-25T09:51:37.400Z,21.90
2018-06-25T09:54:05.759Z,22.00
2018-06-25T09:56:34.022Z,22.10
2018-06-25T09:59:02.275Z,22.20
2018-06-25T10:01:36.941Z,22.20
2018-06-25T10:04:05.152Z,22.20
2018-06-25T10:06:33.376Z,22.30
2018-06-25T10:09:01.641Z,22.40
2018-06-25T10:11:29.920Z,22.30
2018-06-25T10:13:58.188Z,22.30
2018-06-25T10:16:26.448Z,22.30
2018-06-25T10:18:54.716Z,22.40
2018-06-25T10:21:22.978Z,22.40
2018-06-25T10:23:51.207Z,22.30
2018-06-25T10:26:20.260Z,22.20
2018-06-25T10:28:48.513Z,22.30
2018-06-25T10:31:16.761Z,22.70
2018-06-25T10:33:44.999Z,22.90
2018-06-25T10:36:13.285Z,23.00
2018-06-25T10:38:41.648Z,22.80
2018-06-25T10:41:10.111Z,22.60
2018-06-25T10:43:38.575Z,22.50
2018-06-25T10:46:06.831Z,22.50
2018-06-25T10:48:35.104Z,22.70
2018-06-25T10:51:03.404Z,22.90
2018-06-25T10:55:59.684Z,23.30
2018-06-25T10:58:27.932Z,23.20
2018-06-25T11:00:56.190Z,23.20
2018-06-25T11:03:24.449Z,23.20
2018-06-25T11:05:52.737Z,23.30
2018-06-25T11:08:20.972Z,23.30
2018-06-25T11:10:49.204Z,23.40
2018-06-25T11:13:17.440Z,23.60
2018-06-25T11:15:45.744Z,23.70
2018-06-25T11:18:13.948Z,23.90
2018-06-25T11:20:42.373Z,24.00
2018-06-25T11:23:10.636Z,23.90
2018-06-25T11:25:38.864Z,23.90
2018-06-25T11:28:07.100Z,24.00
2018-06-25T11:30:35.360Z,23.90
2018-06-25T11:33:03.576Z,23.80
2018-06-25T11:35:31.816Z,23.50
2018-06-25T11:38:00.026Z,23.20
2018-06-25T11:40:28.297Z,23.00
2018-06-25T11:42:56.531Z,23.00
2018-06-25T11:45:24.775Z,23.10
2018-06-25T11:47:52.984Z,23.20
2018-06-25T11:50:21.312Z,23.30
2018-06-25T11:52:49.549Z,23.50
2018-06-25T11:55:17.802Z,23.70
2018-06-25T11:57:46.057Z,24.10
2018-06-25T12:00:14.308Z,24.40
2018-06-25T12:02:42.747Z,24.70
2018-06-25T12:05:10.784Z,24.60
2018-06-25T12:07:39.020Z,24.60
2018-06-25T12:10:07.370Z,24.50
2018-06-25T12:12:35.627Z,24.60
2018-06-25T12:15:03.904Z,24.60
2018-06-25T12:17:32.228Z,24.40
2018-06-25T12:20:00.444Z,24.10
2018-06-25T12:22:28.688Z,24.20
2018-06-25T12:24:56.940Z,24.40
2018-06-25T12:27:25.188Z,24.60
2018-06-25T12:29:53.463Z,24.80
2018-06-25T12:32:21.716Z,24.90
2018-06-25T12:34:49.986Z,24.90
2018-06-25T12:37:18.304Z,25.10
2018-06-25T12:39:46.515Z,25.10
2018-06-25T12:42:14.768Z,25.10
2018-06-25T12:44:42.999Z,25.00
2018-06-25T12:47:11.668Z,25.20
2018-06-25T12:49:39.921Z,25.20
2018-06-25T12:52:08.177Z,25.00
2018-06-25T12:54:36.484Z,24.90
2018-06-25T12:57:04.797Z,24.90
2018-06-25T12:59:33.029Z,25.00
2018-06-25T13:02:01.323Z,25.00
2018-06-25T13:04:29.583Z,24.90
2018-06-25T13:06:57.795Z,24.90
2018-06-25T13:09:26.156Z,25.00
2018-06-25T13:11:54.386Z,25.20
2018-06-25T13:14:22.651Z,25.40
2018-06-25T13:16:50.883Z,25.60
2018-06-25T13:19:19.344Z,25.70
2018-06-25T13:21:47.576Z,25.80
2018-06-25T13:24:15.823Z,26.10
2018-06-25T13:26:44.045Z,26.30
2018-06-25T13:29:12.287Z,26.40
2018-06-25T13:31:40.563Z,26.70
2018-06-25T13:34:08.804Z,26.90
2018-06-25T13:36:37.024Z,26.90
2018-06-25T13:39:07.468Z,27.00
2018-06-25T13:41:35.745Z,27.10
2018-06-25T13:44:04.235Z,27.30
2018-06-25T13:49:00.627Z,27.80
2018-06-25T13:51:28.967Z,28.50
2018-06-25T13:53:57.198Z,30.50
2018-06-25T13:56:25.763Z,31.40
2018-06-25T14:01:22.547Z,31.10
2018-06-25T14:03:51.136Z,31.20
2018-06-25T14:06:20.103Z,33.10
2018-06-25T14:11:16.348Z,37.90
2018-06-25T14:13:45.382Z,39.90
2018-06-25T14:16:13.728Z,41.20
2018-06-25T14:18:42.251Z,40.40
2018-06-25T14:21:11.044Z,40.90
2018-06-25T14:23:43.716Z,42.50
2018-06-25T14:26:12.200Z,44.30
2018-06-25T14:28:40.607Z,46.40
2018-06-25T14:31:14.439Z,48.50
2018-06-25T14:33:44.116Z,49.90
2018-06-25T14:36:12.548Z,50.50
2018-06-25T14:38:41.048Z,50.30
2018-06-25T14:41:09.493Z,50.20
2018-06-25T14:43:37.852Z,50.70
2018-06-25T14:46:06.123Z,50.90
2018-06-25T14:48:34.714Z,51.10
2018-06-25T14:51:03.565Z,51.20
2018-06-25T14:53:32.267Z,51.40
2018-06-25T14:56:00.778Z,52.10
2018-06-25T14:58:29.246Z,52.20
2018-06-25T15:03:25.735Z,53.10
2018-06-25T15:05:54.475Z,53.50
2018-06-25T15:08:23.108Z,53.50
2018-06-25T15:10:51.403Z,53.50
2018-06-25T15:13:20.221Z,53.40
2018-06-25T15:15:48.572Z,53.30
2018-06-25T15:18:18.143Z,53.30
2018-06-25T15:20:46.952Z,53.70
2018-06-25T15:23:15.215Z,54.10
2018-06-25T15:25:43.474Z,54.10
2018-06-25T15:28:11.734Z,54.10
2018-06-25T15:30:40.019Z,53.80
2018-06-25T15:33:08.238Z,53.20
2018-06-25T15:35:36.513Z,53.20
2018-06-25T15:38:04.876Z,53.20
2018-06-25T15:40:33.070Z,53.40
2018-06-25T15:43:01.336Z,53.20
2018-06-25T15:45:29.583Z,53.20
2018-06-25T15:47:57.831Z,53.00
2018-06-25T15:50:26.431Z,52.90
2018-06-25T15:52:55.003Z,52.80
2018-06-25T15:55:23.578Z,51.60
2018-06-25T15:57:51.896Z,49.90
2018-06-25T16:00:20.211Z,49.20
2018-06-25T16:02:48.451Z,49.20
2018-06-25T16:07:44.656Z,45.30
2018-06-25T16:10:12.883Z,43.10
2018-06-25T16:12:41.205Z,41.60
2018-06-25T16:15:09.436Z,40.40
2018-06-25T16:17:37.713Z,38.80
2018-06-25T16:20:06.068Z,36.90
2018-06-25T16:22:34.232Z,35.40
2018-06-25T16:25:02.483Z,34.20
2018-06-25T16:27:30.707Z,33.30
2018-06-25T16:29:58.968Z,32.40
2018-06-25T16:32:27.196Z,31.60
2018-06-25T16:34:56.171Z,30.90
2018-06-25T16:37:24.382Z,30.50
2018-06-25T16:39:52.777Z,30.30
2018-06-25T16:42:21.074Z,30.60
2018-06-25T16:44:49.357Z,30.90
2018-06-25T16:47:17.646Z,30.60
2018-06-25T16:49:45.891Z,29.90
2018-06-25T16:52:14.159Z,29.50
2018-06-25T16:54:42.410Z,29.20
2018-06-25T16:57:10.778Z,28.80
2018-06-25T16:59:39.246Z,28.60
2018-06-25T17:02:07.465Z,28.30
2018-06-25T17:04:35.683Z,28.10
2018-06-25T17:07:03.943Z,27.90
2018-06-25T17:09:32.209Z,27.60
2018-06-25T17:12:00.485Z,27.50
2018-06-25T17:14:28.725Z,27.30
2018-06-25T17:16:56.939Z,27.40
2018-06-25T17:19:25.236Z,27.40
2018-06-25T17:21:53.657Z,27.40
2018-06-25T17:24:21.919Z,27.30
2018-06-25T17:26:50.132Z,27.40
2018-06-25T17:29:18.407Z,27.90
2018-06-25T17:31:46.639Z,27.90
2018-06-25T17:36:43.119Z,28.00
2018-06-25T17:39:11.375Z,28.20
2018-06-25T17:41:39.583Z,28.30
2018-06-25T17:44:07.900Z,28.20
2018-06-25T17:46:36.113Z,28.00
2018-06-25T17:49:04.636Z,28.30
2018-06-25T17:51:32.877Z,29.80
2018-06-25T17:54:01.145Z,32.10
2018-06-25T17:56:29.362Z,34.10
2018-06-25T17:58:57.772Z,35.70
2018-06-25T18:01:26.037Z,36.90
2018-06-25T18:03:54.427Z,37.70
2018-06-25T18:08:50.583Z,38.70
2018-06-25T18:11:18.828Z,39.00
2018-06-25T18:13:47.069Z,39.20
2018-06-25T18:16:15.316Z,39.20
2018-06-25T18:18:43.528Z,39.40
2018-06-25T18:21:11.841Z,38.70
2018-06-25T18:23:40.035Z,37.70
2018-06-25T18:26:08.300Z,35.80
2018-06-25T18:28:36.536Z,34.00
2018-06-25T18:31:04.817Z,32.50
2018-06-25T18:33:33.161Z,31.30
2018-06-25T18:36:01.454Z,30.30
2018-06-25T18:38:29.889Z,29.50
2018-06-25T18:40:58.537Z,28.80
2018-06-25T18:43:26.747Z,28.30
2018-06-25T18:45:55.005Z,27.90
2018-06-25T18:48:23.452Z,27.50
2018-06-25T18:50:51.956Z,27.10
2018-06-25T18:53:20.184Z,26.70
2018-06-25T18:55:48.466Z,26.40
2018-06-25T18:58:16.744Z,26.10
2018-06-25T19:00:45.014Z,25.90
2018-06-25T19:03:13.235Z,25.70
2018-06-25T19:05:41.467Z,25.50
2018-06-25T19:08:09.727Z,25.30
2018-06-25T19:10:38.040Z,25.10
2018-06-25T19:13:06.255Z,25.00
2018-06-25T19:18:02.441Z,24.70
2018-06-25T19:22:58.762Z,24.40
2018-06-25T19:25:26.989Z,24.30
2018-06-25T19:27:55.263Z,24.10
2018-06-25T19:30:23.495Z,23.90
2018-06-25T19:32:51.699Z,23.80
2018-06-25T19:35:19.927Z,23.70
2018-06-25T19:37:48.231Z,23.50
2018-06-25T19:40:16.731Z,23.40
2018-06-25T19:42:45.457Z,23.30
2018-06-25T19:45:13.868Z,23.20
2018-06-25T19:47:42.288Z,23.00
2018-06-25T19:52:38.507Z,22.80
2018-06-25T19:55:06.779Z,22.70
2018-06-25T19:57:34.992Z,22.60
2018-06-25T20:00:03.285Z,22.50
2018-06-25T20:02:31.516Z,22.40
2018-06-25T20:04:59.848Z,22.40
2018-06-25T20:07:28.089Z,22.40
2018-06-25T20:12:24.846Z,22.30
2018-06-25T20:14:53.024Z,22.30
2018-06-25T20:17:21.376Z,22.20
2018-06-25T20:19:49.788Z,22.10
2018-06-25T20:22:18.059Z,22.00
2018-06-25T20:24:46.248Z,21.90
2018-06-25T20:27:14.499Z,21.70
2018-06-25T20:29:42.738Z,21.60
2018-06-25T20:34:38.955Z,21.40
2018-06-25T20:37:07.196Z,21.40
2018-06-25T20:39:35.459Z,21.30
2018-06-25T20:42:03.728Z,21.20
2018-06-25T20:44:31.915Z,21.10
2018-06-25T20:47:00.454Z,21.10
2018-06-25T20:49:28.685Z,21.00
2018-06-25T20:51:56.959Z,20.90
2018-06-25T20:54:25.198Z,20.80
2018-06-25T20:56:53.493Z,20.70
2018-06-25T21:01:49.667Z,20.60
2018-06-25T21:04:17.912Z,20.50
2018-06-25T21:06:46.151Z,20.50
2018-06-25T21:09:14.460Z,20.50
2018-06-25T21:11:43.043Z,20.50
2018-06-25T21:14:11.316Z,20.40
2018-06-25T21:19:07.807Z,20.30
2018-06-25T21:21:36.084Z,20.20
2018-06-25T21:24:04.335Z,20.10
2018-06-25T21:26:32.592Z,20.00
2018-06-25T21:29:00.828Z,19.90
2018-06-25T21:31:29.108Z,19.80
2018-06-25T21:33:57.359Z,19.70
2018-06-25T21:36:25.612Z,19.70
2018-06-25T21:41:22.138Z,19.50
2018-06-25T21:43:50.376Z,19.40
2018-06-25T21:46:18.636Z,19.40
2018-06-25T21:48:46.860Z,19.30
2018-06-25T21:51:15.149Z,19.30
2018-06-25T21:53:43.347Z,19.20
2018-06-25T21:56:11.576Z,19.20
2018-06-25T21:58:39.793Z,19.10
2018-06-25T22:01:08.057Z,19.10
2018-06-25T22:03:37.300Z,19.00
2018-06-25T22:06:05.648Z,18.90
2018-06-25T22:08:33.859Z,18.80
2018-06-25T22:11:02.263Z,18.70
2018-06-25T22:13:30.500Z,18.70
2018-06-25T22:15:58.719Z,18.60
2018-06-25T22:20:54.969Z,18.30
2018-06-25T22:23:23.221Z,18.10
2018-06-25T22:25:51.464Z,18.00
2018-06-25T22:28:19.695Z,17.90
2018-06-25T22:30:47.943Z,17.80
2018-06-25T22:33:16.202Z,17.80
2018-06-25T22:35:44.408Z,17.80
2018-06-25T22:38:12.660Z,17.90
2018-06-25T22:40:40.983Z,17.90
2018-06-25T22:43:09.227Z,17.90
2018-06-25T22:45:37.515Z,17.90
2018-06-25T22:48:05.768Z,17.80
2018-06-25T22:50:34.018Z,17.80
2018-06-25T22:53:02.276Z,17.80
2018-06-25T22:55:32.401Z,17.80
2018-06-25T22:58:01.000Z,17.70
2018-06-25T23:00:29.428Z,17.60
2018-06-25T23:02:57.648Z,17.60
2018-06-25T23:05:25.900Z,17.60
2018-06-25T23:07:54.150Z,17.60
2018-06-25T23:10:22.601Z,17.60
2018-06-25T23:12:50.910Z,17.50
2018-06-25T23:15:19.129Z,17.40
2018-06-25T23:17:47.400Z,17.40
2018-06-25T23:20:15.608Z,17.30
2018-06-25T23:22:43.888Z,17.20
2018-06-25T23:25:12.104Z,17.20
2018-06-25T23:27:40.353Z,17.20
2018-06-25T23:30:08.568Z,17.20
2018-06-25T23:32:36.807Z,17.20
2018-06-25T23:35:05.029Z,17.10
2018-06-25T23:37:33.252Z,17.10
2018-06-25T23:40:01.628Z,17.00
2018-06-25T23:42:29.878Z,17.00
2018-06-25T23:44:58.112Z,16.90
2018-06-25T23:47:26.396Z,16.80
2018-06-25T23:49:54.637Z,16.70
2018-06-25T23:52:22.873Z,16.60
2018-06-25T23:54:51.154Z,16.60
2018-06-25T23:57:19.414Z,16.60
2018-06-25T23:59:47.672Z,16.50
